Overview Statistics Trail Chart Weather Telemetry Raw packets
 

This is the latest recevied weather packets stored in our database for station/object KB4JAC-13. If no packets are shown the sender has not sent any weather packets the latest 10 day(s).

<< 30 31 32 33 34 35 36 >>
Time Temp. Humidity Pressure Rain* Wind** Luminosity Snow
1788102272 29.44° C 80% 996.8 hPa 0 mm - - -
1788101672 28.33° C 81% 997 hPa 0 mm - - -
1788101071 28.33° C 81% 997.1 hPa 0 mm - - -
1788100471 29.44° C 78% 996.9 hPa 0 mm - - -
1788099870 27.22° C 84% 996.8 hPa 0 mm - - -
1788099270 26.67° C 86% 996.9 hPa 0 mm - - -
1788098670 27.78° C 83% 996.9 hPa 0 mm - - -
1788098069 27.22° C 84% 996.8 hPa 0 mm - - -
1788097468 27.78° C 83% 996.7 hPa 0 mm - - -
1788096868 27.22° C 86% 996.8 hPa 0 mm - - -
1788096268 26.67° C 86% 996.8 hPa 0 mm - - -
1788095667 25.56° C 89% 996.8 hPa 0 mm - - -
1788095067 24.44° C 95% 996.5 hPa 0 mm - - -
1788094467 23.33° C 99% 996.5 hPa 0 mm - - -
1788093866 22.78° C 99% 996.5 hPa 0 mm - - -
1788093266 22.22° C 99% 996.6 hPa 0 mm - - -
1788092665 21.67° C 99% 996.3 hPa 0 mm - - -
1788092065 21.67° C 99% 996.1 hPa 0 mm - - -
1788091464 21.11° C 99% 996.1 hPa 0 mm - - -
1788090864 21.11° C 99% 996.1 hPa 0 mm - - -
1788090264 20.56° C 99% 996 hPa 0 mm - - -
1788089662 20.56° C 99% 995.9 hPa 0 mm - - -
1788089062 20.56° C 99% 995.8 hPa 0 mm - - -
1788088462 20.56° C 99% 995.5 hPa 0 mm - - -
1788087861 20.56° C 99% 995.3 hPa 0 mm - - -

* Rain since midnight (hover to see other rain measurements)
** Current wind speed in m/s (hover to see current wind gust speed)